Time;durP1;ratioP1;P1;durP2;ratioP2;P2;SDS_P1;SDS_P2;PMS_P1;PMS_P2;Temp;Humidity;BMP_temperature;BMP_pressure;BME280_temperature;BME280_humidity;BME280_pressure;Samples;Min_cycle;Max_cycle;Signal;HPM_P1;HPM_P2
2022/03/04 07:35:29;;;;;;;;;62.00;51.33;;;;;6.51;70.48;99006.03;5040266;28;45599;-74
2022/03/04 08:22:02;;;;;;;;;69.00;54.25;;;;;7.47;68.94;99024.34;5166238;22;45402;-63
2022/03/04 08:24:27;;;;;;;;;66.67;52.00;;;;;7.55;68.66;99026.72;5046871;28;45424;-64
2022/03/04 08:26:53;;;;;;;;;67.50;54.00;;;;;7.59;68.40;99031.00;5051006;28;45487;-64
2022/03/04 08:29:18;;;;;;;;;63.67;51.67;;;;;7.63;68.70;99036.09;5050584;28;45441;-64
2022/03/04 08:31:44;;;;;;;;;66.67;53.00;;;;;7.67;68.33;99029.88;5036878;28;45315;-63
2022/03/04 08:34:09;;;;;;;;;66.33;50.67;;;;;7.70;68.34;99028.94;5054019;28;45334;-63
2022/03/04 08:36:36;;;;;;;;;67.00;50.33;;;;;7.68;68.40;99028.97;5036140;28;46152;-64
2022/03/04 08:39:03;;;;;;;;;58.33;49.00;;;;;7.68;68.53;99025.50;5054327;28;45478;-64
2022/03/04 08:41:35;;;;;;;;;63.33;49.67;;;;;7.67;68.55;99029.88;5048442;28;45361;-63
2022/03/04 08:44:01;;;;;;;;;62.33;49.00;;;;;7.68;68.83;99030.72;5054418;28;45476;-63
2022/03/04 08:46:27;;;;;;;;;57.00;45.00;;;;;7.74;68.63;99027.91;5047325;28;45486;-63
2022/03/04 08:48:52;;;;;;;;;67.00;49.67;;;;;7.78;68.81;99018.19;5054479;28;45490;-63
2022/03/04 08:51:18;;;;;;;;;61.00;49.67;;;;;7.83;68.44;99027.66;5044369;28;45429;-63
2022/03/04 08:53:43;;;;;;;;;59.67;49.33;;;;;7.86;68.34;99022.31;5054300;28;45467;-63
2022/03/04 08:56:09;;;;;;;;;61.67;48.67;;;;;7.93;68.11;99021.19;5047164;28;45691;-63
2022/03/04 08:58:35;;;;;;;;;59.67;46.33;;;;;7.99;68.04;99028.88;5054424;28;45345;-67
2022/03/04 09:01:01;;;;;;;;;54.00;42.67;;;;;8.07;67.60;99028.63;5046544;28;45464;-64
2022/03/04 09:03:26;;;;;;;;;56.67;46.67;;;;;8.19;67.00;99020.38;5054069;28;45465;-64
2022/03/04 09:05:52;;;;;;;;;63.00;50.00;;;;;8.29;66.50;99024.44;5051101;28;45509;-64
2022/03/04 09:08:17;;;;;;;;;60.67;49.67;;;;;8.41;66.01;99023.19;5051983;28;45385;-64
2022/03/04 09:10:43;;;;;;;;;60.00;49.00;;;;;8.50;65.33;99019.41;5051174;28;45529;-64
2022/03/04 09:13:08;;;;;;;;;63.33;48.67;;;;;8.57;65.15;99023.53;5054142;28;45357;-64
2022/03/04 09:15:34;;;;;;;;;63.67;49.67;;;;;8.63;64.79;99024.19;5044919;28;45611;-64
2022/03/04 09:17:59;;;;;;;;;59.67;47.33;;;;;8.73;64.82;99025.59;5048802;28;45366;-64
2022/03/04 09:20:25;;;;;;;;;65.00;50.00;;;;;8.83;64.62;99025.28;5051221;28;45558;-64
2022/03/04 09:22:51;;;;;;;;;57.67;47.67;;;;;8.90;63.73;99025.00;5032095;28;45460;-64
2022/03/04 09:25:16;;;;;;;;;64.67;51.33;;;;;8.95;63.57;99032.75;5051986;28;45578;-64
2022/03/04 09:27:43;;;;;;;;;64.33;49.67;;;;;9.02;63.32;99029.00;5054611;28;45381;-64
2022/03/04 09:30:11;;;;;;;;;63.00;50.00;;;;;9.12;63.28;99021.63;5051031;28;45510;-63
2022/03/04 09:32:37;;;;;;;;;51.33;41.00;;;;;9.21;62.49;99021.31;5042767;28;45551;-63
2022/03/04 09:35:05;;;;;;;;;61.00;46.33;;;;;9.27;62.07;99018.44;5050555;28;45349;-64
2022/03/04 09:37:30;;;;;;;;;56.33;46.00;;;;;9.30;61.67;99018.34;5053897;28;45595;-64
2022/03/04 09:39:56;;;;;;;;;62.33;48.33;;;;;9.35;61.29;99013.78;5047584;28;45453;-64
2022/03/04 09:42:22;;;;;;;;;58.67;46.00;;;;;9.41;60.76;99010.91;5049377;28;45551;-64
2022/03/04 09:44:48;;;;;;;;;60.00;48.33;;;;;9.49;59.88;99008.84;5051103;28;46344;-64
2022/03/04 09:47:16;;;;;;;;;58.67;46.00;;;;;9.58;59.99;99007.63;5048681;28;45364;-61
2022/03/04 09:49:42;;;;;;;;;59.00;46.67;;;;;9.66;59.32;99003.81;5050927;28;45592;-62
2022/03/04 09:52:08;;;;;;;;;60.33;46.67;;;;;9.77;59.48;99008.66;5050320;28;45387;-62
2022/03/04 09:54:34;;;;;;;;;54.33;45.67;;;;;9.86;58.66;99007.47;5051870;28;45520;-61
2022/03/04 09:57:00;;;;;;;;;59.00;47.00;;;;;9.88;58.18;99006.47;5048928;28;45409;-61
2022/03/04 09:59:25;;;;;;;;;55.33;43.67;;;;;9.92;57.71;99010.69;5050775;28;45546;-61
2022/03/04 10:01:51;;;;;;;;;54.00;41.67;;;;;9.96;58.24;99004.38;5046174;28;46265;-62
2022/03/04 10:04:17;;;;;;;;;49.00;41.00;;;;;10.02;56.92;99003.31;5054952;28;45650;-62
2022/03/04 10:06:48;;;;;;;;;43.33;38.00;;;;;10.08;56.19;98996.00;5052073;28;45524;-62
2022/03/04 10:09:47;;;;;;;;;44.00;39.00;;;;;10.19;55.24;98992.13;5056616;28;45322;-62
2022/03/04 10:12:15;;;;;;;;;47.67;36.67;;;;;10.28;55.53;98997.00;5043586;28;45559;-61
2022/03/04 10:14:57;;;;;;;;;50.67;39.67;;;;;10.32;55.01;98994.19;5054562;28;46281;-62
2022/03/04 10:17:23;;;;;;;;;45.67;39.67;;;;;10.37;54.73;98996.63;5047994;28;45381;-61
2022/03/04 10:19:55;;;;;;;;;48.67;38.33;;;;;10.41;54.39;98991.16;5054925;28;45442;-61
2022/03/04 10:22:21;;;;;;;;;46.67;39.00;;;;;10.45;55.01;98998.03;5041920;28;45677;-61
2022/03/04 10:24:47;;;;;;;;;51.67;41.00;;;;;10.53;55.02;99000.34;5053511;28;45520;-62
2022/03/04 10:27:15;;;;;;;;;56.33;44.67;;;;;10.61;54.80;98992.09;5056334;28;45396;-62
2022/03/04 10:29:40;;;;;;;;;56.00;44.00;;;;;10.69;55.23;98996.16;5049913;28;45450;-61
2022/03/04 10:32:06;;;;;;;;;56.33;45.33;;;;;10.78;55.56;98993.09;5051226;28;45518;-61
2022/03/04 10:34:58;;;;;;;;;53.00;42.67;;;;;10.87;54.90;98991.00;5054433;28;45477;-61
2022/03/04 10:37:52;;;;;;;;;49.33;41.67;;;;;10.97;54.75;98979.97;5052297;28;45305;-65
2022/03/04 10:40:20;;;;;;;;;58.33;44.33;;;;;11.05;54.12;98980.50;5056713;28;45440;-60
2022/03/04 10:42:50;;;;;;;;;61.67;47.33;;;;;11.15;54.13;98975.66;5056529;28;45523;-60
2022/03/04 10:45:22;;;;;;;;;59.00;46.67;;;;;11.22;54.14;98973.63;5057766;28;45418;-62
2022/03/04 10:47:52;;;;;;;;;53.33;44.00;;;;;11.26;53.86;98969.91;5057985;28;45427;-62
2022/03/04 10:50:27;;;;;;;;;63.00;48.00;;;;;11.31;53.60;98966.13;5056046;28;45416;-62
2022/03/04 10:52:56;;;;;;;;;60.00;49.00;;;;;11.39;53.98;98960.53;5056101;28;45531;-61
2022/03/04 10:55:29;;;;;;;;;53.67;44.67;;;;;11.46;53.52;98956.66;5051907;28;46104;-62
2022/03/04 10:57:56;;;;;;;;;56.00;47.33;;;;;11.56;53.31;98963.25;5056425;28;45440;-61
2022/03/04 11:00:36;;;;;;;;;61.33;47.00;;;;;11.64;53.09;98958.44;5055990;28;45401;-61
2022/03/04 11:03:03;;;;;;;;;53.00;43.33;;;;;11.71;52.77;98951.09;5053367;28;45620;-61
2022/03/04 11:05:29;;;;;;;;;52.00;40.33;;;;;11.81;51.72;98950.59;5055858;28;45357;-63
2022/03/04 11:07:55;;;;;;;;;50.67;42.00;;;;;11.86;50.92;98950.41;5055482;28;45442;-62
2022/03/04 11:10:22;;;;;;;;;50.33;40.00;;;;;11.96;51.38;98949.00;5055777;28;45405;-61
2022/03/04 11:12:53;;;;;;;;;56.67;42.00;;;;;12.04;50.82;98943.38;5055842;28;45483;-61
2022/03/04 11:15:20;;;;;;;;;45.67;38.00;;;;;12.10;50.74;98943.91;5053860;28;45421;-61
2022/03/04 11:17:47;;;;;;;;;51.33;41.33;;;;;12.17;50.24;98944.47;5055619;28;45460;-61
2022/03/04 11:20:13;;;;;;;;;51.33;41.33;;;;;12.26;50.28;98937.84;5055857;28;45426;-61
2022/03/04 11:22:41;;;;;;;;;51.67;39.67;;;;;12.36;50.03;98931.19;5055672;28;45368;-61
2022/03/04 11:25:13;;;;;;;;;53.33;40.00;;;;;12.42;49.58;98923.78;5055831;28;45974;-61
2022/03/04 11:27:42;;;;;;;;;54.33;41.67;;;;;12.51;49.23;98919.84;5055907;28;45467;-61
2022/03/04 11:30:27;;;;;;;;;45.33;37.67;;;;;12.62;49.47;98928.06;5037425;28;45424;-61
2022/03/04 11:33:03;;;;;;;;;48.00;40.67;;;;;12.72;49.13;98915.25;5055834;28;45535;-61
2022/03/04 11:35:41;;;;;;;;;48.00;36.67;;;;;12.82;48.93;98919.09;5055587;28;45368;-61
2022/03/04 11:38:10;;;;;;;;;46.00;37.33;;;;;12.90;48.83;98914.28;5055793;28;45361;-62
2022/03/04 11:40:38;;;;;;;;;54.67;42.00;;;;;13.01;48.38;98913.69;5056224;28;45485;-62
2022/03/04 11:43:09;;;;;;;;;52.33;42.33;;;;;13.09;48.23;98911.47;5055793;28;45448;-62
2022/03/04 11:45:36;;;;;;;;;52.67;36.67;;;;;13.16;48.35;98903.19;5037287;28;47341;-62
2022/03/04 11:48:11;;;;;;;;;52.00;38.67;;;;;13.24;47.88;98902.75;5037258;28;45433;-62
2022/03/04 11:50:36;;;;;;;;;51.67;41.67;;;;;13.30;48.01;98901.56;5054342;28;45373;-61
2022/03/04 11:53:13;;;;;;;;;48.67;39.00;;;;;13.33;47.92;98896.09;5055410;28;45700;-61
2022/03/04 11:55:39;;;;;;;;;40.33;33.67;;;;;13.36;47.90;98888.00;5055295;28;46083;-61
2022/03/04 11:58:05;;;;;;;;;51.67;39.00;;;;;13.40;47.25;98889.56;5054976;28;45443;-61
2022/03/04 12:00:33;;;;;;;;;50.33;38.33;;;;;13.46;46.97;98892.69;5055430;28;45405;-62
2022/03/04 12:03:09;;;;;;;;;48.00;37.00;;;;;13.53;46.63;98888.78;5055119;28;45311;-61
2022/03/04 12:05:37;;;;;;;;;50.33;40.00;;;;;13.59;45.40;98887.56;5036899;28;47605;-62
2022/03/04 12:08:02;;;;;;;;;35.00;32.33;;;;;13.59;46.16;98875.19;5055042;28;45492;-62
2022/03/04 12:10:31;;;;;;;;;49.00;38.33;;;;;13.60;45.92;98878.69;5054790;28;45411;-62
2022/03/04 12:13:25;;;;;;;;;39.33;34.00;;;;;13.60;45.05;98858.34;5036945;28;45567;-62
2022/03/04 12:16:04;;;;;;;;;37.67;34.67;;;;;13.63;39.75;98868.78;5054799;28;45455;-60
2022/03/04 12:18:35;;;;;;;;;27.00;26.33;;;;;13.67;39.67;98858.00;5037236;28;45547;-61
2022/03/04 12:21:07;;;;;;;;;37.67;32.33;;;;;13.74;38.54;98872.63;5048672;28;45818;-61
2022/03/04 12:23:40;;;;;;;;;30.67;27.00;;;;;13.79;39.02;98871.41;5041596;28;45735;-61
2022/03/04 12:26:06;;;;;;;;;29.00;24.67;;;;;13.79;37.46;98850.19;5054444;28;45544;-61
2022/03/04 12:28:34;;;;;;;;;25.33;21.33;;;;;13.88;36.78;98852.34;5037068;28;45370;-61
2022/03/04 12:31:03;;;;;;;;;29.67;23.67;;;;;13.93;37.72;98850.25;5054835;28;45337;-60
2022/03/04 12:33:34;;;;;;;;;25.67;22.00;;;;;13.97;36.65;98865.03;5054955;28;45591;-60
2022/03/04 12:36:01;;;;;;;;;23.67;21.00;;;;;13.92;36.93;98843.25;5054813;28;45679;-61
2022/03/04 12:38:27;;;;;;;;;32.00;29.33;;;;;13.95;36.76;98839.56;5054739;28;45509;-61
2022/03/04 12:40:58;;;;;;;;;32.00;30.33;;;;;13.97;36.30;98835.88;5047055;28;45318;-62
2022/03/04 12:43:25;;;;;;;;;33.33;31.00;;;;;14.01;37.24;98839.22;5053729;28;45489;-60
2022/03/04 12:45:51;;;;;;;;;37.00;32.00;;;;;14.03;36.57;98825.88;5054524;28;45516;-61
2022/03/04 12:48:18;;;;;;;;;37.67;31.67;;;;;14.05;36.19;98824.84;5059920;28;45602;-61
2022/03/04 12:50:44;;;;;;;;;26.00;24.00;;;;;14.10;37.49;98819.25;5048324;28;45419;-60
2022/03/04 12:53:31;;;;;;;;;33.00;24.67;;;;;14.13;36.82;98851.75;5053895;28;45863;-61
2022/03/04 12:56:01;;;;;;;;;35.00;29.00;;;;;14.15;37.82;98815.41;5046617;28;45511;-61
2022/03/04 12:58:37;;;;;;;;;31.00;26.67;;;;;14.18;37.09;98848.84;5054900;28;45375;-61
2022/03/04 13:01:04;;;;;;;;;36.00;32.00;;;;;14.20;36.68;98833.69;5050648;28;45405;-62
2022/03/04 13:03:31;;;;;;;;;36.33;30.33;;;;;14.20;37.14;98797.44;5056953;28;45572;-62
2022/03/04 13:05:57;;;;;;;;;32.00;28.33;;;;;14.26;37.89;98805.00;5049055;28;45405;-62
2022/03/04 13:08:23;;;;;;;;;29.00;27.33;;;;;14.29;37.24;98815.44;5060183;28;45561;-62
2022/03/04 13:10:49;;;;;;;;;36.00;28.33;;;;;14.25;37.33;98803.28;5051495;28;45435;-62
2022/03/04 13:13:14;;;;;;;;;19.00;18.00;;;;;14.26;37.12;98812.09;5057004;28;45330;-62
2022/03/04 13:15:47;;;;;;;;;29.67;27.67;;;;;14.25;36.92;98783.88;5054968;28;45606;-61
2022/03/04 13:18:14;;;;;;;;;28.00;25.67;;;;;14.23;36.33;98810.50;5042969;28;45383;-62
2022/03/04 13:20:39;;;;;;;;;25.67;24.67;;;;;14.27;35.43;98809.34;5048743;28;45503;-61
2022/03/04 13:23:07;;;;;;;;;31.00;25.67;;;;;14.30;35.29;98798.56;5056793;28;45632;-70
2022/03/04 13:25:33;;;;;;;;;26.67;25.00;;;;;14.32;34.72;98806.44;5046991;28;46174;-70
2022/03/04 13:27:59;;;;;;;;;24.33;23.67;;;;;14.41;34.61;98810.38;5050391;28;45393;-71
2022/03/04 13:30:25;;;;;;;;;27.67;25.67;;;;;14.41;35.11;98783.84;5050485;28;45315;-71
2022/03/04 13:32:55;;;;;;;;;23.67;19.00;;;;;14.47;36.69;98763.09;5053421;28;45418;-71
2022/03/04 13:35:24;;;;;;;;;20.67;19.67;;;;;14.49;34.15;98785.09;5051064;28;45350;-68
2022/03/04 13:37:51;;;;;;;;;18.00;15.33;;;;;14.47;34.55;98802.03;5053107;28;45341;-68
2022/03/04 13:40:19;;;;;;;;;24.00;21.67;;;;;14.48;33.94;98807.25;5053093;28;45237;-69
2022/03/04 13:42:58;;;;;;;;;23.00;20.00;;;;;14.49;35.22;98778.91;5053191;28;45563;-70
2022/03/04 13:45:46;;;;;;;;;18.67;16.67;;;;;14.49;34.01;98790.38;5045336;28;45377;-69
2022/03/04 13:48:12;;;;;;;;;18.00;18.00;;;;;14.53;34.79;98772.50;5042051;28;45397;-69
2022/03/04 13:50:47;;;;;;;;;19.00;19.00;;;;;14.53;35.01;98780.44;5046035;28;45533;-70
2022/03/04 13:53:19;;;;;;;;;25.00;23.00;;;;;14.55;35.29;98782.06;5048572;28;45465;-69
2022/03/04 13:55:49;;;;;;;;;26.33;24.67;;;;;14.62;35.49;98762.16;5046294;28;45383;-69
2022/03/04 13:58:19;;;;;;;;;14.00;12.33;;;;;14.64;34.64;98809.81;5032681;28;45440;-69
2022/03/04 14:00:45;;;;;;;;;22.33;22.00;;;;;14.59;34.62;98756.16;5029766;28;45245;-69
2022/03/04 14:03:13;;;;;;;;;24.00;23.33;;;;;14.53;35.28;98781.31;5053903;28;45294;-69
2022/03/04 14:05:42;;;;;;;;;16.00;12.67;;;;;14.54;35.98;98769.75;5047754;28;45703;-61
2022/03/04 14:08:13;;;;;;;;;27.67;23.33;;;;;14.56;36.89;98767.84;5046606;28;45425;-60
2022/03/04 14:10:41;;;;;;;;;20.67;20.67;;;;;14.56;35.77;98762.53;5044274;28;45415;-60
2022/03/04 14:13:10;;;;;;;;;25.67;24.00;;;;;14.62;36.42;98751.53;5053363;28;45404;-62
2022/03/04 14:15:43;;;;;;;;;29.00;27.33;;;;;14.65;36.03;98759.31;5047718;28;46022;-62
2022/03/04 14:18:11;;;;;;;;;26.67;26.00;;;;;14.63;36.59;98771.81;5049784;28;45420;-70
2022/03/04 14:20:38;;;;;;;;;19.33;18.00;;;;;14.60;36.19;98771.16;5043200;28;45541;-70
2022/03/04 14:23:05;;;;;;;;;29.33;25.00;;;;;14.55;36.28;98762.63;5050243;28;45306;-70
2022/03/04 14:25:31;;;;;;;;;27.00;22.33;;;;;14.57;36.72;98780.16;5038397;28;46977;-71
2022/03/04 14:27:57;;;;;;;;;28.33;25.67;;;;;14.83;36.56;98753.78;5057610;28;45433;-69
2022/03/04 14:30:26;;;;;;;;;24.00;21.33;;;;;15.10;35.24;98791.84;5054071;28;45682;-70
2022/03/04 14:32:53;;;;;;;;;30.33;27.00;;;;;15.30;35.26;98742.78;5055846;28;45465;-69
2022/03/04 14:35:21;;;;;;;;;31.00;27.33;;;;;15.47;35.12;98741.66;5053593;28;45506;-69
2022/03/04 14:37:47;;;;;;;;;34.00;32.00;;;;;15.57;34.61;98761.41;5053227;28;45438;-68
2022/03/04 14:40:18;;;;;;;;;29.00;24.33;;;;;15.53;34.73;98773.16;5060687;28;45620;-70
2022/03/04 14:42:45;;;;;;;;;23.33;20.00;;;;;15.59;34.96;98754.16;5044996;28;45527;-70
2022/03/04 14:45:11;;;;;;;;;25.67;21.33;;;;;15.67;33.78;98744.75;5047214;28;47805;-71
2022/03/04 14:47:38;;;;;;;;;28.00;21.33;;;;;15.68;33.81;98766.84;5055685;28;45400;-70
2022/03/04 14:50:05;;;;;;;;;23.33;22.00;;;;;15.70;34.46;98759.63;5060914;28;45603;-72
2022/03/04 14:52:32;;;;;;;;;25.67;23.00;;;;;15.70;34.06;98763.16;5067570;28;45476;-64
2022/03/04 14:54:57;;;;;;;;;28.67;26.00;;;;;15.69;34.76;98744.63;5067827;28;45704;-63
2022/03/04 14:57:23;;;;;;;;;26.67;23.33;;;;;15.68;34.09;98765.03;5057680;28;45456;-67
2022/03/04 14:59:49;;;;;;;;;29.33;25.67;;;;;15.51;34.43;98759.97;5056372;28;45502;-66
2022/03/04 15:02:16;;;;;;;;;30.33;23.33;;;;;15.29;34.68;98749.03;5039354;28;45533;-67
2022/03/04 15:04:41;;;;;;;;;19.67;19.00;;;;;15.07;35.10;98746.94;5060127;28;45472;-67
2022/03/04 15:07:09;;;;;;;;;30.00;29.67;;;;;14.92;35.28;98764.66;5065969;28;45468;-68
2022/03/04 15:09:36;;;;;;;;;25.33;22.00;;;;;14.79;35.89;98753.13;5056914;28;45366;-66
2022/03/04 15:12:02;;;;;;;;;20.67;19.67;;;;;14.73;36.26;98773.91;5066073;28;45369;-66
2022/03/04 15:14:27;;;;;;;;;26.33;24.33;;;;;14.63;36.32;98770.97;5030079;28;46883;-67
2022/03/04 15:16:53;;;;;;;;;29.00;25.00;;;;;14.55;36.53;98747.56;5055134;28;45444;-67
2022/03/04 15:19:19;;;;;;;;;26.33;21.00;;;;;14.53;35.75;98764.53;5035722;28;45441;-67
2022/03/04 15:21:44;;;;;;;;;18.33;16.00;;;;;14.51;36.78;98763.78;5049684;28;46524;-67
2022/03/04 15:24:11;;;;;;;;;23.00;20.33;;;;;14.45;36.40;98756.19;5054238;28;46248;-67
2022/03/04 15:26:39;;;;;;;;;28.00;26.67;;;;;14.39;36.66;98756.53;5037520;28;45432;-67
2022/03/04 15:29:05;;;;;;;;;32.67;30.33;;;;;14.36;36.67;98772.63;5051715;28;45314;-68
2022/03/04 15:31:31;;;;;;;;;28.33;24.33;;;;;14.35;36.37;98769.13;5062098;28;45326;-67
2022/03/04 15:33:56;;;;;;;;;26.67;24.33;;;;;14.32;37.11;98770.16;5052586;28;45429;-68
2022/03/04 15:36:22;;;;;;;;;22.00;22.00;;;;;14.33;36.94;98768.38;5046148;28;45326;-70
2022/03/04 15:38:47;;;;;;;;;25.67;24.00;;;;;14.27;36.90;98784.63;5036564;28;45704;-68
2022/03/04 15:41:13;;;;;;;;;30.00;28.00;;;;;14.23;36.89;98756.63;5054700;28;45539;-68
2022/03/04 15:43:38;;;;;;;;;20.33;19.33;;;;;14.30;36.22;98756.13;5054672;28;46586;-68
2022/03/04 15:46:04;;;;;;;;;31.00;29.33;;;;;14.49;36.23;98782.44;5042808;28;45444;-69
2022/03/04 15:48:30;;;;;;;;;31.33;26.67;;;;;14.67;36.23;98809.63;5055670;28;45420;-68
2022/03/04 15:50:55;;;;;;;;;24.33;17.67;;;;;14.77;35.99;98808.09;5054562;28;45464;-67
2022/03/04 15:53:22;;;;;;;;;30.00;28.33;;;;;14.84;35.77;98796.16;5054954;28;45784;-68
2022/03/04 15:55:48;;;;;;;;;29.67;29.00;;;;;14.93;36.00;98782.31;5044490;28;45557;-68
2022/03/04 15:58:13;;;;;;;;;35.67;29.00;;;;;14.99;35.70;98779.28;5055481;28;45604;-69
2022/03/04 16:00:38;;;;;;;;;25.67;23.67;;;;;15.02;35.68;98773.78;5042810;28;45440;-69
2022/03/04 16:03:04;;;;;;;;;24.33;23.33;;;;;15.04;35.42;98765.72;5055450;28;46065;-69
2022/03/04 16:05:29;;;;;;;;;25.33;23.33;;;;;15.08;35.79;98790.28;5033662;28;45374;-69
2022/03/04 16:07:55;;;;;;;;;28.33;27.33;;;;;15.06;35.44;98755.00;5055644;28;45440;-69
2022/03/04 16:10:22;;;;;;;;;29.00;25.67;;;;;15.04;35.63;98781.63;5045602;28;45472;-69
2022/03/04 16:12:48;;;;;;;;;28.00;26.67;;;;;15.03;35.46;98774.63;5054454;28;45612;-69
2022/03/04 16:15:13;;;;;;;;;36.00;31.33;;;;;15.04;35.03;98789.59;5046461;28;45515;-69
2022/03/04 16:17:39;;;;;;;;;32.00;29.33;;;;;15.03;35.10;98777.28;5055002;28;45460;-69
2022/03/04 16:20:05;;;;;;;;;27.33;23.67;;;;;15.00;34.76;98786.28;5052750;28;45529;-69
2022/03/04 16:22:31;;;;;;;;;32.33;29.67;;;;;15.02;34.24;98788.84;5036443;28;45626;-69
2022/03/04 16:24:56;;;;;;;;;29.33;26.67;;;;;15.03;34.70;98787.91;5046796;28;45389;-69
2022/03/04 16:27:22;;;;;;;;;27.00;24.00;;;;;15.04;34.57;98791.41;5047068;28;45413;-69
2022/03/04 16:29:48;;;;;;;;;29.33;25.00;;;;;15.02;34.26;98794.16;5050185;28;45542;-69
2022/03/04 16:32:13;;;;;;;;;27.00;26.33;;;;;14.97;35.08;98789.13;5046819;28;45368;-68
2022/03/04 16:34:41;;;;;;;;;31.33;28.00;;;;;14.89;35.25;98779.97;5051575;28;45417;-68
2022/03/04 16:37:07;;;;;;;;;33.00;30.00;;;;;14.75;35.24;98774.63;5047356;28;45329;-68
2022/03/04 16:39:32;;;;;;;;;30.33;29.33;;;;;14.52;35.22;98784.91;5052300;28;45398;-68
2022/03/04 16:41:58;;;;;;;;;28.33;28.33;;;;;14.37;35.96;98784.94;5054818;28;46146;-68
2022/03/04 16:44:24;;;;;;;;;40.67;34.67;;;;;14.20;36.17;98789.47;5053662;28;45452;-69
2022/03/04 16:46:49;;;;;;;;;35.67;30.00;;;;;14.06;36.12;98793.91;5054641;28;45415;-68
2022/03/04 16:49:14;;;;;;;;;36.67;30.67;;;;;13.95;36.15;98791.88;5050767;28;45373;-68
2022/03/04 16:51:40;;;;;;;;;29.67;28.00;;;;;13.88;36.67;98791.41;5054460;28;46039;-68
2022/03/04 16:54:06;;;;;;;;;24.00;22.33;;;;;13.79;36.62;98805.16;5051634;28;45583;-70
2022/03/04 16:56:32;;;;;;;;;38.00;30.00;;;;;13.72;36.33;98810.91;5051191;28;45401;-62
2022/03/04 16:58:57;;;;;;;;;38.00;31.67;;;;;13.63;35.99;98797.25;5052146;28;45404;-61
2022/03/04 17:01:22;;;;;;;;;30.33;27.00;;;;;13.52;36.00;98814.72;5049898;28;45478;-62
2022/03/04 17:03:48;;;;;;;;;36.00;29.33;;;;;13.48;36.62;98815.81;5052754;28;45367;-61
2022/03/04 17:06:13;;;;;;;;;37.67;32.00;;;;;13.42;36.64;98813.50;5048737;28;45509;-61
2022/03/04 17:08:39;;;;;;;;;36.67;31.33;;;;;13.35;36.98;98813.00;5035256;28;45582;-61
2022/03/04 17:11:06;;;;;;;;;33.00;27.33;;;;;13.29;37.18;98826.59;5050316;28;45603;-62
2022/03/04 17:13:33;;;;;;;;;40.33;32.33;;;;;13.23;36.96;98830.44;5052866;28;45366;-62
2022/03/04 17:15:58;;;;;;;;;30.33;28.67;;;;;13.18;36.16;98819.25;5046372;28;45438;-62
2022/03/04 17:18:24;;;;;;;;;41.00;34.33;;;;;13.14;35.97;98827.41;5051329;28;45303;-62
2022/03/04 17:20:50;;;;;;;;;43.00;33.00;;;;;13.08;35.07;98819.78;5048566;28;46517;-62
2022/03/04 17:23:17;;;;;;;;;37.33;32.33;;;;;13.05;34.63;98825.28;5051477;28;45805;-62
2022/03/04 17:25:43;;;;;;;;;30.33;29.00;;;;;12.96;33.74;98828.41;5028572;28;45466;-62
2022/03/04 17:28:08;;;;;;;;;30.67;28.33;;;;;12.89;33.72;98822.63;5051141;28;45380;-62
2022/03/04 17:30:34;;;;;;;;;36.00;28.33;;;;;12.83;34.15;98831.72;5050759;28;46338;-62
2022/03/04 17:32:59;;;;;;;;;39.67;31.33;;;;;12.74;33.96;98842.78;5052667;28;45416;-62
2022/03/04 17:35:25;;;;;;;;;35.00;33.00;;;;;12.69;34.16;98849.28;5045672;28;45443;-62
2022/03/04 17:37:51;;;;;;;;;40.00;35.00;;;;;12.63;34.23;98842.50;5050992;28;45436;-62
2022/03/04 17:40:17;;;;;;;;;39.33;35.00;;;;;12.58;34.59;98841.88;5046889;28;46530;-62
2022/03/04 17:42:43;;;;;;;;;30.33;28.33;;;;;12.54;34.96;98861.50;5050683;28;45371;-63
2022/03/04 17:45:09;;;;;;;;;33.67;30.33;;;;;12.48;34.87;98854.75;5047456;28;45486;-63
2022/03/04 17:47:34;;;;;;;;;46.33;36.67;;;;;12.48;34.59;98864.47;5053526;28;45460;-63
2022/03/04 17:50:01;;;;;;;;;33.00;30.33;;;;;12.44;34.51;98863.75;5046728;28;46060;-65
2022/03/04 17:52:26;;;;;;;;;34.67;30.33;;;;;12.40;35.07;98879.88;5054416;28;45463;-63
2022/03/04 17:54:53;;;;;;;;;38.00;30.00;;;;;12.35;35.10;98885.41;5053812;28;45574;-63
2022/03/04 17:57:19;;;;;;;;;25.67;18.67;;;;;12.34;34.53;98870.47;5061778;28;45501;-68
2022/03/04 17:59:46;;;;;;;;;38.00;31.33;;;;;12.32;34.73;98889.97;5032576;28;47357;-69
2022/03/04 18:02:13;;;;;;;;;37.67;31.00;;;;;12.28;34.96;98869.91;5061880;28;45360;-69
2022/03/04 18:04:39;;;;;;;;;24.00;20.67;;;;;12.25;34.76;98897.34;5031342;28;45664;-70
2022/03/04 18:07:05;;;;;;;;;38.00;32.67;;;;;12.19;35.05;98903.81;5034801;28;45562;-69
2022/03/04 18:09:31;;;;;;;;;42.33;31.33;;;;;12.15;34.84;98899.63;5029593;28;46673;-70
2022/03/04 18:11:57;;;;;;;;;39.67;31.33;;;;;12.17;35.01;98905.69;5034891;28;45516;-69
2022/03/04 18:14:24;;;;;;;;;34.33;31.00;;;;;12.17;35.07;98900.41;5049248;28;45476;-70
2022/03/04 18:16:51;;;;;;;;;35.33;31.00;;;;;12.13;35.46;98890.06;5052628;28;45195;-70
2022/03/04 18:19:16;;;;;;;;;31.00;26.67;;;;;12.08;35.28;98914.06;5050984;28;46563;-70
2022/03/04 18:21:42;;;;;;;;;42.00;35.00;;;;;12.04;34.79;98891.38;5033879;28;45532;-70
2022/03/04 18:24:08;;;;;;;;;38.00;31.67;;;;;12.02;35.03;98895.88;5034611;28;45473;-70
2022/03/04 18:26:34;;;;;;;;;39.67;32.67;;;;;12.00;35.57;98907.44;5046009;28;45483;-70
2022/03/04 18:29:00;;;;;;;;;30.00;30.00;;;;;11.96;35.72;98900.59;5032866;28;47216;-71
2022/03/04 18:31:26;;;;;;;;;44.67;34.33;;;;;11.93;35.64;98901.59;5051046;28;45493;-70
2022/03/04 18:33:52;;;;;;;;;41.33;35.33;;;;;11.90;35.90;98904.38;5032725;28;45329;-70
2022/03/04 18:36:17;;;;;;;;;25.00;23.67;;;;;11.88;36.20;98906.28;5048939;28;45555;-69
2022/03/04 18:41:26;;;;;;;;;32.00;28.67;;;;;11.86;36.52;98906.34;5067581;28;45527;-70
2022/03/04 18:43:52;;;;;;;;;35.00;28.00;;;;;11.85;36.76;98901.13;5028675;28;45405;-70
2022/03/04 18:46:17;;;;;;;;;41.67;36.00;;;;;11.81;36.55;98905.72;5063929;28;45485;-70
2022/03/04 18:48:48;;;;;;;;;38.33;33.33;;;;;11.80;36.78;98918.97;5058310;28;45485;-70
2022/03/04 18:51:14;;;;;;;;;39.00;33.33;;;;;11.79;36.57;98904.06;5062254;28;45435;-70
2022/03/04 18:53:40;;;;;;;;;36.67;31.67;;;;;11.76;36.64;98904.22;5062564;28;45408;-70
2022/03/04 18:56:05;;;;;;;;;47.33;38.00;;;;;11.72;37.12;98908.78;5043301;28;45263;-68
2022/03/04 18:58:31;;;;;;;;;37.00;33.00;;;;;11.73;37.23;98901.72;5056583;28;45915;-71
2022/03/04 19:00:56;;;;;;;;;41.33;32.67;;;;;11.71;37.18;98899.13;5059575;28;45477;-70
2022/03/04 19:03:22;;;;;;;;;37.33;32.00;;;;;11.67;37.22;98904.63;5041753;28;45422;-70
2022/03/04 19:05:47;;;;;;;;;49.33;37.00;;;;;11.65;37.63;98907.34;5055655;28;45608;-70
2022/03/04 19:08:13;;;;;;;;;34.67;31.00;;;;;11.62;37.67;98904.84;5039487;28;45505;-70
2022/03/04 19:10:39;;;;;;;;;41.00;34.00;;;;;11.62;37.73;98911.91;5034319;28;45706;-70
2022/03/04 19:13:04;;;;;;;;;40.67;35.33;;;;;11.61;37.43;98912.84;5048723;28;45332;-71
2022/03/04 19:15:30;;;;;;;;;36.33;31.67;;;;;11.59;38.03;98906.75;5056440;28;45534;-71
2022/03/04 19:17:56;;;;;;;;;43.00;33.67;;;;;11.58;37.62;98905.91;5057388;28;45459;-71
2022/03/04 19:20:25;;;;;;;;;35.67;31.00;;;;;11.57;37.67;98909.47;5056949;28;45668;-70
2022/03/04 19:22:56;;;;;;;;;46.67;36.67;;;;;11.56;37.90;98917.50;5040428;28;45441;-70
2022/03/04 19:25:24;;;;;;;;;32.00;28.33;;;;;11.50;38.20;98910.72;5057095;28;45371;-70
2022/03/04 19:27:49;;;;;;;;;47.33;38.00;;;;;11.46;38.06;98904.72;5062038;28;46531;-70
2022/03/04 19:30:16;;;;;;;;;42.00;34.67;;;;;11.44;38.19;98906.56;5057249;28;45521;-70
2022/03/04 19:32:43;;;;;;;;;38.33;34.33;;;;;11.42;38.04;98905.78;5068977;28;45407;-70
2022/03/04 19:35:11;;;;;;;;;42.67;36.67;;;;;11.40;38.43;98918.19;5062049;28;45359;-70
2022/03/04 19:37:39;;;;;;;;;36.67;29.67;;;;;11.39;38.52;98918.28;5050353;28;47536;-63
2022/03/04 19:40:06;;;;;;;;;42.00;36.33;;;;;11.38;38.33;98914.78;5064655;28;45492;-62
2022/03/04 19:42:37;;;;;;;;;44.33;35.00;;;;;11.36;38.87;98921.94;5046641;28;45442;-62